createdAt,value
2022-08-26T00:00:54.743Z,18.98
2022-08-26T00:03:24.582Z,17.35
2022-08-26T00:05:53.490Z,18.13
2022-08-26T00:08:24.377Z,17.10
2022-08-26T00:10:53.056Z,17.73
2022-08-26T00:13:22.188Z,16.92
2022-08-26T00:15:51.456Z,17.08
2022-08-26T00:18:22.610Z,16.83
2022-08-26T00:20:51.571Z,18.17
2022-08-26T00:23:20.583Z,18.55
2022-08-26T00:25:54.677Z,18.55
2022-08-26T00:28:27.503Z,18.17
2022-08-26T00:30:56.122Z,17.95
2022-08-26T00:33:24.786Z,16.63
2022-08-26T00:35:53.483Z,17.88
2022-08-26T00:38:24.991Z,17.20
2022-08-26T00:40:58.887Z,18.02
2022-08-26T00:43:28.182Z,17.40
2022-08-26T00:45:59.955Z,16.60
2022-08-26T00:48:32.180Z,16.85
2022-08-26T00:51:04.025Z,17.58
2022-08-26T00:53:37.849Z,17.98
2022-08-26T00:56:17.850Z,18.30
2022-08-26T00:58:48.124Z,17.83
2022-08-26T01:01:17.154Z,17.88
2022-08-26T01:03:46.781Z,19.33
2022-08-26T01:06:18.405Z,17.85
2022-08-26T01:08:47.066Z,18.48
2022-08-26T01:11:17.657Z,17.80
2022-08-26T01:13:47.874Z,17.00
2022-08-26T01:16:17.274Z,16.55
2022-08-26T01:18:46.986Z,17.20
2022-08-26T01:21:19.640Z,16.35
2022-08-26T01:23:51.490Z,16.45
2022-08-26T01:26:30.125Z,16.67
2022-08-26T01:29:01.162Z,17.55
2022-08-26T01:31:32.634Z,18.40
2022-08-26T01:34:06.048Z,17.77
2022-08-26T01:36:34.750Z,18.85
2022-08-26T01:39:05.824Z,17.83
2022-08-26T01:41:38.166Z,18.33
2022-08-26T01:44:09.725Z,18.60
2022-08-26T01:46:38.717Z,18.73
2022-08-26T01:49:08.711Z,17.27
2022-08-26T01:51:39.326Z,18.35
2022-08-26T01:54:12.011Z,18.90
2022-08-26T01:56:42.433Z,18.45
2022-08-26T01:59:12.956Z,17.92
2022-08-26T02:01:42.593Z,18.58
2022-08-26T02:04:18.112Z,19.02
2022-08-26T02:06:46.808Z,18.35
2022-08-26T02:09:17.128Z,17.98
2022-08-26T02:11:45.948Z,18.05
2022-08-26T02:14:17.876Z,18.08
2022-08-26T02:16:49.110Z,19.25
2022-08-26T02:19:21.810Z,18.85
2022-08-26T02:21:54.517Z,19.75
2022-08-26T02:24:30.397Z,19.03
2022-08-26T02:26:59.779Z,18.73
2022-08-26T02:29:33.005Z,18.77
2022-08-26T02:32:01.530Z,19.65
2022-08-26T02:34:32.843Z,18.63
2022-08-26T02:37:05.040Z,18.85
2022-08-26T02:39:37.040Z,19.67
2022-08-26T02:42:06.987Z,20.65
2022-08-26T02:44:35.718Z,19.27
2022-08-26T02:47:05.345Z,20.17
2022-08-26T02:49:34.011Z,19.08
2022-08-26T02:52:02.607Z,19.08
2022-08-26T02:54:31.967Z,20.58
2022-08-26T02:57:03.519Z,19.10
2022-08-26T02:59:36.132Z,20.33
2022-08-26T03:02:04.891Z,20.13
2022-08-26T03:04:34.071Z,19.95
2022-08-26T03:07:03.123Z,19.65
2022-08-26T03:09:31.800Z,20.10
2022-08-26T03:12:00.664Z,20.33
2022-08-26T03:14:30.750Z,21.27
2022-08-26T03:16:59.562Z,21.38
2022-08-26T03:19:28.184Z,19.08
2022-08-26T03:21:58.021Z,20.42
2022-08-26T03:24:27.532Z,19.60
2022-08-26T03:26:56.453Z,20.08
2022-08-26T03:29:44.887Z,18.90
2022-08-26T03:32:20.910Z,18.95
2022-08-26T03:34:50.189Z,18.65
2022-08-26T03:37:18.874Z,18.55
2022-08-26T03:39:47.591Z,18.80
2022-08-26T03:42:17.918Z,19.63
2022-08-26T03:44:51.643Z,18.60
2022-08-26T03:47:22.067Z,18.42
2022-08-26T03:49:50.779Z,18.98
2022-08-26T03:52:20.582Z,19.13
2022-08-26T03:54:49.380Z,18.70
2022-08-26T03:57:17.936Z,17.77
2022-08-26T03:59:47.976Z,18.13
2022-08-26T04:02:16.991Z,17.50
2022-08-26T04:04:47.842Z,18.45
2022-08-26T04:07:16.716Z,18.70
2022-08-26T04:09:46.268Z,18.05
2022-08-26T04:12:15.826Z,18.75
2022-08-26T04:14:44.625Z,19.13
2022-08-26T04:17:13.548Z,18.40
2022-08-26T04:19:42.174Z,17.98
2022-08-26T04:22:12.191Z,19.25
2022-08-26T04:24:41.145Z,18.02
2022-08-26T04:27:10.487Z,18.30
2022-08-26T04:29:40.872Z,18.25
2022-08-26T04:32:09.896Z,17.67
2022-08-26T04:34:39.087Z,18.33
2022-08-26T04:37:08.497Z,18.15
2022-08-26T04:39:38.713Z,18.73
2022-08-26T04:42:08.056Z,18.20
2022-08-26T04:44:38.445Z,18.02
2022-08-26T04:47:08.294Z,17.08
2022-08-26T04:49:38.419Z,17.23
2022-08-26T04:52:07.221Z,17.90
2022-08-26T04:54:36.399Z,16.17
2022-08-26T04:57:06.726Z,15.15
2022-08-26T04:59:39.118Z,16.02
2022-08-26T05:02:08.654Z,16.02
2022-08-26T05:04:37.799Z,15.38
2022-08-26T05:07:07.984Z,15.77
2022-08-26T05:09:38.795Z,15.98
2022-08-26T05:12:09.779Z,16.13
2022-08-26T05:14:38.425Z,15.05
2022-08-26T05:17:07.131Z,15.50
2022-08-26T05:19:37.239Z,15.10
2022-08-26T05:22:13.227Z,14.60
2022-08-26T05:24:43.370Z,14.35
2022-08-26T05:27:13.986Z,14.52
2022-08-26T05:29:42.784Z,14.52
2022-08-26T05:32:13.044Z,12.57
2022-08-26T05:34:42.950Z,13.90
2022-08-26T05:37:13.596Z,13.82
2022-08-26T05:39:43.534Z,13.85
2022-08-26T05:42:21.635Z,14.00
2022-08-26T05:44:55.992Z,12.63
2022-08-26T05:47:25.212Z,12.55
2022-08-26T05:49:54.615Z,12.40
2022-08-26T05:52:24.687Z,12.30
2022-08-26T05:54:54.797Z,12.88
2022-08-26T05:57:24.864Z,12.70
2022-08-26T05:59:53.444Z,12.10
2022-08-26T06:02:22.015Z,11.90
2022-08-26T06:04:50.934Z,12.80
2022-08-26T06:07:40.612Z,12.18
2022-08-26T06:10:31.438Z,13.20
2022-08-26T06:13:09.234Z,11.25
2022-08-26T06:15:45.715Z,11.75
2022-08-26T06:18:15.828Z,11.43
2022-08-26T06:20:57.382Z,11.32
2022-08-26T06:23:45.629Z,10.90
2022-08-26T06:26:14.636Z,10.95
2022-08-26T06:28:45.575Z,11.07
2022-08-26T06:31:14.863Z,10.25
2022-08-26T06:33:43.892Z,10.18
2022-08-26T06:36:18.636Z,12.50
2022-08-26T06:38:48.603Z,10.80
2022-08-26T06:41:18.471Z,11.52
2022-08-26T06:43:50.355Z,11.20
2022-08-26T06:46:21.734Z,10.55
2022-08-26T06:48:51.039Z,10.30
2022-08-26T06:51:22.315Z,10.75
2022-08-26T06:53:53.879Z,9.82
2022-08-26T06:56:24.599Z,9.82
2022-08-26T06:58:54.805Z,10.52
2022-08-26T07:01:27.337Z,10.88
2022-08-26T07:03:58.610Z,10.05
2022-08-26T07:06:29.439Z,9.63
2022-08-26T07:09:04.033Z,11.23
2022-08-26T07:11:34.010Z,10.82
2022-08-26T07:14:04.532Z,9.68
2022-08-26T07:16:33.408Z,9.55
2022-08-26T07:19:03.481Z,8.80
2022-08-26T07:21:40.522Z,9.80
2022-08-26T07:24:09.409Z,8.48
2022-08-26T07:26:43.059Z,9.15
2022-08-26T07:29:15.116Z,9.65
2022-08-26T07:31:43.718Z,8.40
2022-08-26T07:34:13.765Z,8.73
2022-08-26T07:36:42.696Z,8.00
2022-08-26T07:39:11.367Z,8.60
2022-08-26T07:41:42.892Z,9.02
2022-08-26T07:44:12.955Z,9.07
2022-08-26T07:46:41.644Z,8.60
2022-08-26T07:49:18.009Z,8.95
2022-08-26T07:51:46.786Z,8.60
2022-08-26T07:54:16.904Z,8.57
2022-08-26T07:56:46.305Z,8.25
2022-08-26T07:59:17.177Z,8.02
2022-08-26T08:01:46.632Z,8.93
2022-08-26T08:04:15.516Z,8.48
2022-08-26T08:06:44.428Z,8.00
2022-08-26T08:09:13.621Z,8.05
2022-08-26T08:11:42.313Z,7.85
2022-08-26T08:14:12.772Z,8.68
2022-08-26T08:16:45.861Z,10.35
2022-08-26T08:19:15.690Z,8.80
2022-08-26T08:21:44.427Z,7.00
2022-08-26T08:24:13.227Z,7.13
2022-08-26T08:26:41.921Z,7.20
2022-08-26T08:29:10.504Z,7.50
2022-08-26T08:31:56.790Z,7.07
2022-08-26T08:34:30.199Z,8.40
2022-08-26T08:36:59.047Z,8.85
2022-08-26T08:39:28.775Z,7.68
2022-08-26T08:42:16.231Z,7.03
2022-08-26T08:44:52.350Z,7.45
2022-08-26T08:47:29.398Z,8.30
2022-08-26T08:50:01.492Z,8.30
2022-08-26T08:52:35.264Z,7.53
2022-08-26T08:55:05.695Z,7.63
2022-08-26T08:57:46.904Z,7.40
2022-08-26T09:00:18.739Z,7.07
2022-08-26T09:02:54.069Z,7.75
2022-08-26T09:05:25.628Z,7.25
2022-08-26T09:07:57.856Z,6.80
2022-08-26T09:10:32.732Z,7.00
2022-08-26T09:13:02.762Z,7.63
2022-08-26T09:15:38.806Z,6.78
2022-08-26T09:18:13.285Z,7.38
2022-08-26T09:20:49.259Z,6.43
2022-08-26T09:23:19.312Z,6.90
2022-08-26T09:25:50.771Z,7.45
2022-08-26T09:28:21.188Z,7.13
2022-08-26T09:31:01.643Z,6.95
2022-08-26T09:33:35.000Z,7.15
2022-08-26T09:36:26.339Z,7.25
2022-08-26T09:38:55.278Z,6.90
2022-08-26T09:41:27.659Z,6.43
2022-08-26T09:44:20.938Z,6.47
2022-08-26T09:46:56.720Z,6.55
2022-08-26T09:49:32.655Z,7.65
2022-08-26T09:52:26.829Z,6.78
2022-08-26T09:55:09.317Z,6.88
2022-08-26T09:57:47.257Z,7.20
2022-08-26T10:00:29.130Z,6.93
2022-08-26T10:02:58.698Z,7.55
2022-08-26T10:05:33.255Z,7.43
2022-08-26T10:08:18.259Z,7.15
2022-08-26T10:10:47.928Z,7.35
2022-08-26T10:13:29.470Z,7.47
2022-08-26T10:16:03.396Z,7.75
2022-08-26T10:18:37.136Z,6.93
2022-08-26T10:21:10.137Z,7.05
2022-08-26T10:23:43.750Z,6.80
2022-08-26T10:26:16.031Z,7.03
2022-08-26T10:28:48.536Z,7.55
2022-08-26T10:31:28.027Z,7.40
2022-08-26T10:34:00.454Z,6.82
2022-08-26T10:39:46.010Z,6.78
2022-08-26T10:42:18.937Z,6.57
2022-08-26T10:44:49.912Z,6.57
2022-08-26T10:47:20.822Z,6.65
2022-08-26T10:49:51.239Z,6.88
2022-08-26T10:52:23.286Z,6.68
2022-08-26T10:55:03.609Z,6.28
2022-08-26T10:57:43.951Z,6.25
2022-08-26T11:00:34.156Z,6.60
2022-08-26T11:03:21.707Z,6.90
2022-08-26T11:06:17.811Z,7.35
2022-08-26T11:08:50.795Z,6.70
2022-08-26T11:11:49.230Z,7.13
2022-08-26T11:14:46.084Z,7.00
2022-08-26T11:17:56.691Z,7.47
2022-08-26T11:20:45.031Z,6.97
2022-08-26T11:23:38.907Z,6.32
2022-08-26T11:26:27.478Z,6.50
2022-08-26T11:29:12.132Z,6.47
2022-08-26T11:31:56.323Z,6.22
2022-08-26T11:34:52.559Z,6.13
2022-08-26T11:37:22.090Z,6.88
2022-08-26T11:39:55.486Z,6.35
2022-08-26T11:42:32.636Z,6.35
2022-08-26T11:45:05.840Z,6.60
2022-08-26T11:47:34.556Z,6.50
2022-08-26T11:50:12.125Z,6.65
2022-08-26T11:52:40.697Z,6.00
2022-08-26T11:55:12.179Z,5.95
2022-08-26T11:57:45.092Z,6.55
2022-08-26T12:00:22.562Z,6.45
2022-08-26T12:02:52.652Z,6.18
2022-08-26T12:05:26.732Z,6.22
2022-08-26T12:07:58.575Z,6.80
2022-08-26T12:10:31.207Z,6.47
2022-08-26T12:13:01.812Z,6.80
2022-08-26T12:15:32.683Z,6.72
2022-08-26T12:18:20.539Z,6.30
2022-08-26T12:20:59.798Z,6.43
2022-08-26T12:23:38.623Z,6.72
2022-08-26T12:26:10.519Z,7.35
2022-08-26T12:28:45.240Z,6.55
2022-08-26T12:31:26.972Z,6.57
2022-08-26T12:33:57.213Z,6.80
2022-08-26T12:36:32.150Z,6.80
2022-08-26T12:39:09.105Z,6.80
2022-08-26T12:41:50.617Z,6.95
2022-08-26T12:44:53.293Z,7.00
2022-08-26T12:47:32.767Z,7.22
2022-08-26T12:50:18.608Z,6.97
2022-08-26T12:52:56.029Z,6.70
2022-08-26T12:55:27.853Z,7.10
2022-08-26T12:58:20.066Z,7.40
2022-08-26T13:00:49.404Z,6.60
2022-08-26T13:03:43.558Z,7.20
2022-08-26T13:06:17.970Z,8.98
2022-08-26T13:08:48.780Z,5.97
2022-08-26T13:11:20.706Z,7.03
2022-08-26T13:13:50.609Z,5.90
2022-08-26T13:16:19.671Z,5.85
2022-08-26T13:18:51.239Z,5.90
2022-08-26T13:21:21.414Z,6.15
2022-08-26T13:23:50.693Z,5.65
2022-08-26T13:26:19.883Z,5.80
2022-08-26T13:28:53.263Z,6.07
2022-08-26T13:31:31.766Z,6.50
2022-08-26T13:34:02.037Z,5.78
2022-08-26T13:36:30.881Z,5.63
2022-08-26T13:38:59.505Z,5.93
2022-08-26T13:41:29.496Z,6.32
2022-08-26T13:43:59.398Z,6.20
2022-08-26T13:46:28.621Z,6.38
2022-08-26T13:48:57.341Z,6.22
2022-08-26T13:51:28.370Z,6.70
2022-08-26T13:53:57.516Z,6.53
2022-08-26T13:56:27.564Z,5.82
2022-08-26T13:58:56.491Z,6.15
2022-08-26T14:01:25.424Z,6.72
2022-08-26T14:03:54.243Z,6.22
2022-08-26T14:06:23.376Z,6.70
2022-08-26T14:08:53.509Z,6.78
2022-08-26T14:11:23.229Z,6.50
2022-08-26T14:13:53.978Z,6.60
2022-08-26T14:16:25.054Z,7.13
2022-08-26T14:18:54.110Z,7.90
2022-08-26T14:21:23.028Z,6.43
2022-08-26T14:23:53.067Z,6.95
2022-08-26T14:26:28.594Z,6.47
2022-08-26T14:28:59.082Z,6.88
2022-08-26T14:31:32.063Z,6.45
2022-08-26T14:34:03.361Z,6.28
2022-08-26T14:36:32.754Z,6.60
2022-08-26T14:39:05.210Z,6.35
2022-08-26T14:41:34.427Z,6.50
2022-08-26T14:44:05.121Z,7.10
2022-08-26T14:46:36.141Z,6.18
2022-08-26T14:49:08.494Z,6.53
2022-08-26T14:51:39.111Z,6.18
2022-08-26T14:54:13.930Z,6.28
2022-08-26T14:56:46.802Z,6.47
2022-08-26T14:59:17.630Z,6.50
2022-08-26T15:01:46.755Z,6.80
2022-08-26T15:04:15.699Z,6.63
2022-08-26T15:06:44.379Z,6.93
2022-08-26T15:09:14.790Z,7.00
2022-08-26T15:11:43.432Z,7.60
2022-08-26T15:14:18.932Z,7.88
2022-08-26T15:16:49.068Z,7.00
2022-08-26T15:19:18.451Z,6.72
2022-08-26T15:21:47.739Z,6.55
2022-08-26T15:24:20.664Z,7.20
2022-08-26T15:26:49.634Z,7.10
2022-08-26T15:29:18.261Z,7.32
2022-08-26T15:31:47.695Z,6.68
2022-08-26T15:34:17.247Z,6.63
2022-08-26T15:36:46.585Z,7.55
2022-08-26T15:39:18.440Z,7.15
2022-08-26T15:41:47.737Z,6.47
2022-08-26T15:44:17.507Z,7.10
2022-08-26T15:46:46.320Z,7.40
2022-08-26T15:49:18.317Z,7.25
2022-08-26T15:51:48.291Z,6.60
2022-08-26T15:54:20.004Z,7.90
2022-08-26T15:56:51.795Z,6.80
2022-08-26T15:59:21.087Z,7.07
2022-08-26T16:01:49.692Z,6.85
2022-08-26T16:04:18.888Z,7.30
2022-08-26T16:06:50.449Z,7.38
2022-08-26T16:09:20.923Z,7.43
2022-08-26T16:11:49.429Z,6.97
2022-08-26T16:14:18.104Z,7.20
2022-08-26T16:16:47.249Z,7.40
2022-08-26T16:19:15.958Z,8.05
2022-08-26T16:21:44.793Z,7.53
2022-08-26T16:24:13.582Z,7.20
2022-08-26T16:26:44.409Z,6.72
2022-08-26T16:29:15.040Z,8.52
2022-08-26T16:31:43.990Z,7.68
2022-08-26T16:34:12.741Z,8.43
2022-08-26T16:36:41.651Z,7.72
2022-08-26T16:39:10.735Z,8.18
2022-08-26T16:41:39.333Z,7.45
2022-08-26T16:44:11.624Z,8.68
2022-08-26T16:46:41.335Z,7.75
2022-08-26T16:49:10.018Z,7.30
2022-08-26T16:51:39.662Z,8.05
2022-08-26T16:54:09.123Z,7.90
2022-08-26T16:56:38.139Z,8.70
2022-08-26T16:59:11.139Z,9.05
2022-08-26T17:01:40.414Z,8.98
2022-08-26T17:04:09.153Z,9.32
2022-08-26T17:06:38.340Z,9.25
2022-08-26T17:09:09.380Z,9.18
2022-08-26T17:11:37.978Z,11.75
2022-08-26T17:14:06.724Z,8.77
2022-08-26T17:16:36.874Z,10.40
2022-08-26T17:19:06.298Z,9.18
2022-08-26T17:21:36.359Z,8.23
2022-08-26T17:24:05.342Z,9.20
2022-08-26T17:26:34.299Z,8.18
2022-08-26T17:29:03.097Z,8.25
2022-08-26T17:31:32.116Z,9.52
2022-08-26T17:34:02.289Z,8.98
2022-08-26T17:36:34.022Z,9.50
2022-08-26T17:39:02.707Z,8.85
2022-08-26T17:41:31.397Z,9.10
2022-08-26T17:44:00.048Z,9.23
2022-08-26T17:46:28.906Z,11.05
2022-08-26T17:48:57.575Z,11.00
2022-08-26T17:51:27.614Z,9.68
2022-08-26T17:53:56.290Z,8.98
2022-08-26T17:56:27.069Z,9.70
2022-08-26T17:58:57.048Z,9.45
2022-08-26T18:01:27.758Z,10.32
2022-08-26T18:04:00.353Z,10.18
2022-08-26T18:06:31.671Z,9.50
2022-08-26T18:09:00.781Z,10.30
2022-08-26T18:11:29.936Z,10.10
2022-08-26T18:13:58.775Z,10.20
2022-08-26T18:16:28.284Z,10.70
2022-08-26T18:18:56.896Z,10.13
2022-08-26T18:21:32.033Z,10.18
2022-08-26T18:24:00.822Z,9.27
2022-08-26T18:26:31.427Z,9.98
2022-08-26T18:29:00.319Z,9.30
2022-08-26T18:31:29.999Z,10.10
2022-08-26T18:34:00.582Z,10.88
2022-08-26T18:36:32.844Z,10.10
2022-08-26T18:39:01.993Z,10.70
2022-08-26T18:41:32.890Z,10.45
2022-08-26T18:44:02.837Z,10.23
2022-08-26T18:46:31.656Z,9.95
2022-08-26T18:49:00.424Z,10.52
2022-08-26T18:51:33.139Z,11.20
2022-08-26T18:54:03.332Z,10.38
2022-08-26T18:56:33.677Z,11.07
2022-08-26T18:59:02.739Z,10.45
2022-08-26T19:01:32.315Z,10.02
2022-08-26T19:04:02.442Z,9.90
2022-08-26T19:06:35.583Z,9.55
2022-08-26T19:09:05.682Z,12.67
2022-08-26T19:11:37.401Z,12.25
2022-08-26T19:14:13.234Z,13.60
2022-08-26T19:16:42.698Z,12.32
2022-08-26T19:19:12.066Z,12.35
2022-08-26T19:21:42.651Z,11.82
2022-08-26T19:24:15.648Z,12.00
2022-08-26T19:26:47.918Z,12.13
2022-08-26T19:31:47.993Z,10.55
2022-08-26T19:34:18.287Z,9.70
2022-08-26T19:36:54.272Z,10.93
2022-08-26T19:39:22.986Z,10.40
2022-08-26T19:41:52.759Z,10.15
2022-08-26T19:44:40.651Z,9.30
2022-08-26T19:47:11.733Z,9.70
2022-08-26T19:49:40.508Z,10.75
2022-08-26T19:52:11.235Z,13.50
2022-08-26T19:54:40.121Z,11.27
2022-08-26T19:57:08.777Z,11.80
2022-08-26T19:59:37.536Z,11.48
2022-08-26T20:02:10.576Z,13.23
2022-08-26T20:04:39.678Z,12.00
2022-08-26T20:07:09.203Z,13.30
2022-08-26T20:09:39.438Z,13.60
2022-08-26T20:12:09.029Z,17.58
2022-08-26T20:14:37.947Z,15.23
2022-08-26T20:17:07.270Z,14.20
2022-08-26T20:19:53.669Z,12.57
2022-08-26T20:22:22.637Z,13.27
2022-08-26T20:24:53.199Z,13.23
2022-08-26T20:27:27.653Z,13.98
2022-08-26T20:30:08.632Z,12.15
2022-08-26T20:32:37.865Z,13.25
2022-08-26T20:35:08.155Z,12.57
2022-08-26T20:37:36.825Z,13.55
2022-08-26T20:40:09.522Z,13.52
2022-08-26T20:42:38.820Z,12.13
2022-08-26T20:45:08.857Z,13.35
2022-08-26T20:47:40.123Z,13.95
2022-08-26T20:50:14.276Z,14.25
2022-08-26T20:55:13.899Z,13.10
2022-08-26T20:57:43.429Z,13.25
2022-08-26T21:00:18.135Z,15.07
2022-08-26T21:02:48.748Z,14.13
2022-08-26T21:05:17.403Z,14.23
2022-08-26T21:07:46.205Z,13.60
2022-08-26T21:10:16.772Z,13.50
2022-08-26T21:12:45.447Z,13.68
2022-08-26T21:15:15.667Z,15.52
2022-08-26T21:17:45.540Z,13.95
2022-08-26T21:20:15.929Z,15.77
2022-08-26T21:22:45.172Z,15.13
2022-08-26T21:25:14.110Z,14.18
2022-08-26T21:27:44.159Z,15.80
2022-08-26T21:30:18.171Z,14.68
2022-08-26T21:32:46.882Z,14.68
2022-08-26T21:35:15.728Z,13.93
2022-08-26T21:37:44.431Z,14.15
2022-08-26T21:40:13.696Z,13.57
2022-08-26T21:42:43.897Z,14.45
2022-08-26T21:45:13.246Z,13.85
2022-08-26T21:47:41.982Z,11.40
2022-08-26T21:50:11.198Z,12.30
2022-08-26T21:52:40.073Z,12.43
2022-08-26T21:55:11.726Z,12.85
2022-08-26T21:57:41.027Z,14.75
2022-08-26T22:00:15.788Z,14.15
2022-08-26T22:02:44.638Z,13.73
2022-08-26T22:05:13.614Z,15.07
2022-08-26T22:07:42.305Z,13.25
2022-08-26T22:10:11.367Z,13.52
2022-08-26T22:12:40.016Z,14.35
2022-08-26T22:15:12.250Z,14.50
2022-08-26T22:17:41.092Z,13.90
2022-08-26T22:20:16.588Z,14.70
2022-08-26T22:22:45.879Z,14.50
2022-08-26T22:25:14.923Z,14.45
2022-08-26T22:27:43.750Z,14.75
2022-08-26T22:30:14.691Z,14.30
2022-08-26T22:32:44.118Z,12.88
2022-08-26T22:35:29.302Z,13.77
2022-08-26T22:37:58.675Z,14.85
2022-08-26T22:40:27.490Z,16.10
2022-08-26T22:42:58.079Z,14.68
2022-08-26T22:45:31.446Z,15.90
2022-08-26T22:48:00.912Z,14.75
2022-08-26T22:50:29.719Z,16.00
2022-08-26T22:52:58.487Z,15.63
2022-08-26T22:55:27.087Z,14.63
2022-08-26T22:57:55.738Z,15.15
2022-08-26T23:00:32.198Z,15.50
2022-08-26T23:03:03.126Z,16.38
2022-08-26T23:05:31.932Z,15.50
2022-08-26T23:08:00.789Z,15.35
2022-08-26T23:10:30.602Z,15.77
2022-08-26T23:12:59.203Z,16.48
2022-08-26T23:15:28.025Z,16.75
2022-08-26T23:17:58.539Z,16.85
2022-08-26T23:20:29.598Z,16.42
2022-08-26T23:22:58.779Z,17.55
2022-08-26T23:25:29.691Z,19.23
2022-08-26T23:27:59.544Z,17.95
2022-08-26T23:30:29.855Z,16.73
2022-08-26T23:32:58.520Z,16.48
2022-08-26T23:35:28.115Z,16.90
2022-08-26T23:37:58.334Z,18.17
2022-08-26T23:40:30.257Z,17.65
2022-08-26T23:42:59.594Z,15.60
2022-08-26T23:45:29.101Z,16.80
2022-08-26T23:47:57.775Z,17.05
2022-08-26T23:50:45.270Z,16.13
2022-08-26T23:53:19.549Z,15.70
2022-08-26T23:58:17.933Z,16.85
